Aérodrome :
LOGIN :

S'inscrire | Disclaimer

   EN    FR    IT 

 










Légende :    VFR   VFR Marginal   IFR   IFR Intensif   IFR Très Intensif
Visi : 
Plafond : 
>= 8 km
>= 3000ft
5 à 8 km
1000 à 3000 ft
1500m à 5 km
500 à 1000 ft
800 à 1500m
200 à 500 ft
< 800m
< 200 ft
Symboles :   Orages  Brouillard  Fortes neiges  Fortes précipitations  Vent > 20 kt
SIGMETs :   Divers  Orages  Givrage  Turbulence  Onde Orograph.  Cendres Volcan.







- Altitude de l'aérodrome : 55 ft
- Voir les cartes d'approche


EGNO - Warton Preston

DERNIER METAR :
  • 280750Z VRB03KT 9999 SCT036 08/03 Q1017

METARs EXPIRÉS :
  • 280720Z 12004KT 080V160 9999 SCT037 08/03 Q1017
  • 280650Z 09004KT 9999 SCT040 07/04 Q1017
  • 280620Z 09004KT 070V130 9999 FEW040 BKN061 07/05 Q1017
  • 280550Z 10003KT CAVOK 07/05 Q1017

TAF TAF EGNO
Valide du 28 à 06h jusqu'au 28 à 15h UTC


280625Z 2806/2815 09004KT 9999 SCT025
TEMPO 2812/2815 25010KT
ATIS : +44 1772 856 060
Pas de NOTAMs connus pour ce terrain.



MET'MAP, la Météo Aéronautique d'un coup d'oeil ! - Copyright ORBIFLY Décembre 2007 - Disclaimer

ORBIFLY MET'MAP TEAM :

Programmation & Développement : Alexandra Zaïnal
Conception & Développement : Baudouin d'Aumeries
Co-Programmation & Développement : Marc-Olivier Méhu
Soutien technique & logistique : Manuel Goepfert

Contact : metmap@orbifly.com




SOURCES & CREDITS :

   NOAA